Terminal Aerodrome Forecast
Issued by NWS

Current Version | Previous Version | Text Only | Print | Product List | Glossary On
Versions: 1 2 3 4 5 6 7 8 9 10 11 12 13 14 15 16 17 18 19 20 21 22 23 24 25 26
000
FTUS45 KABQ 221138
TAFTCC
TAF
KTCC 221138Z 2212/2312 19006KT 4SM BR OVC004
     FM221500 21008KT P6SM BKN015
     FM221800 20012KT P6SM BKN035
     FM222000 18016G24KT P6SM BKN050
      TEMPO 2304/2308 2SM TSRA OVC020CB
     FM230800 18012KT P6SM BKN025=

USA.gov is the U.S. government's official web portal to all federal, state and local government web resources and services.